Time;durP1;ratioP1;P1;durP2;ratioP2;P2;SDS_P1;SDS_P2;PMS_P1;PMS_P2;Temp;Humidity;BMP_temperature;BMP_pressure;BME280_temperature;BME280_humidity;BME280_pressure;Samples;Min_cycle;Max_cycle;Signal;HPM_P1;HPM_P2
2022/09/17 00:00:33;;;;;;;;;1.00;1.00;;;;;;;;4901094;28;48370;-67
2022/09/17 00:02:58;;;;;;;;;0.00;0.00;;;;;;;;4902093;29;45332;-67
2022/09/17 00:05:23;;;;;;;;;2.50;0.00;;;;;;;;4902665;29;45356;-67
2022/09/17 00:07:49;;;;;;;;;0.00;0.00;;;;;;;;4902448;29;45306;-67
2022/09/17 00:10:15;;;;;;;;;1.00;0.00;;;;;;;;4902269;28;46361;-67
2022/09/17 00:12:41;;;;;;;;;0.50;0.25;;;;;;;;4901996;29;45461;-67
2022/09/17 00:15:06;;;;;;;;;4.00;3.00;;;;;;;;4902427;28;45443;-67
2022/09/17 00:17:31;;;;;;;;;0.25;0.25;;;;;;;;4901257;28;45418;-67
2022/09/17 00:19:57;;;;;;;;;2.25;1.00;;;;;;;;4902157;29;45519;-67
2022/09/17 00:22:22;;;;;;;;;1.00;1.00;;;;;;;;4901574;28;45502;-67
2022/09/17 00:24:47;;;;;;;;;1.50;0.25;;;;;;;;4901474;29;45407;-67
2022/09/17 00:27:12;;;;;;;;;1.50;0.00;;;;;;;;4902431;29;45306;-67
2022/09/17 00:29:38;;;;;;;;;2.00;0.00;;;;;;;;4901970;29;45445;-67
2022/09/17 00:32:03;;;;;;;;;1.00;1.00;;;;;;;;4902199;29;45452;-67
2022/09/17 00:34:28;;;;;;;;;2.75;0.00;;;;;;;;4900829;29;45631;-67
2022/09/17 00:36:53;;;;;;;;;0.25;0.25;;;;;;;;4901973;29;45384;-67
2022/09/17 00:39:18;;;;;;;;;2.25;0.00;;;;;;;;4901719;29;45304;-67
2022/09/17 00:41:44;;;;;;;;;2.00;1.00;;;;;;;;4901841;29;45444;-67
2022/09/17 00:44:27;;;;;;;;;1.50;0.25;;;;;;;;4902000;29;45343;-67
2022/09/17 00:46:53;;;;;;;;;1.50;0.75;;;;;;;;4902070;28;45834;-67
2022/09/17 00:49:21;;;;;;;;;2.75;0.00;;;;;;;;4900304;29;46287;-67
2022/09/17 00:51:51;;;;;;;;;0.75;0.50;;;;;;;;4901593;28;45454;-67
2022/09/17 00:54:16;;;;;;;;;0.00;0.00;;;;;;;;4901966;28;45766;-67
2022/09/17 00:56:42;;;;;;;;;2.75;0.25;;;;;;;;4901650;28;45245;-68
2022/09/17 00:59:08;;;;;;;;;2.00;1.25;;;;;;;;4901485;28;45436;-67
2022/09/17 01:01:33;;;;;;;;;0.00;0.00;;;;;;;;4901495;28;45372;-68
2022/09/17 01:03:59;;;;;;;;;1.00;1.00;;;;;;;;4901351;28;45488;-68
2022/09/17 01:06:24;;;;;;;;;0.75;0.00;;;;;;;;4900960;29;45333;-67
2022/09/17 01:09:01;;;;;;;;;1.00;1.00;;;;;;;;4891615;29;46592;-68
2022/09/17 01:11:45;;;;;;;;;0.50;0.50;;;;;;;;4901016;29;45342;-68
2022/09/17 01:14:22;;;;;;;;;3.75;0.00;;;;;;;;4901605;29;45385;-68
2022/09/17 01:17:08;;;;;;;;;3.00;1.00;;;;;;;;4901628;29;45293;-68
2022/09/17 01:19:53;;;;;;;;;2.50;1.00;;;;;;;;4901139;29;46214;-67
2022/09/17 01:22:37;;;;;;;;;4.75;1.00;;;;;;;;4841733;29;45453;-67
2022/09/17 01:25:14;;;;;;;;;1.00;1.00;;;;;;;;4843172;29;45403;-67
2022/09/17 01:27:48;;;;;;;;;1.00;0.50;;;;;;;;4842771;29;45382;-67
2022/09/17 01:30:21;;;;;;;;;0.25;0.25;;;;;;;;4842743;29;45729;-67
2022/09/17 01:33:13;;;;;;;;;2.50;1.00;;;;;;;;4842965;29;45346;-67
2022/09/17 01:35:42;;;;;;;;;2.75;0.25;;;;;;;;4821641;29;45430;-67
2022/09/17 01:38:10;;;;;;;;;2.00;0.75;;;;;;;;4842692;29;45637;-67
2022/09/17 01:40:44;;;;;;;;;5.75;2.00;;;;;;;;4841496;29;46117;-67
2022/09/17 01:43:14;;;;;;;;;3.25;1.25;;;;;;;;4842642;29;45322;-67
2022/09/17 01:45:39;;;;;;;;;3.00;1.00;;;;;;;;4842920;29;45601;-67
2022/09/17 01:48:18;;;;;;;;;3.75;0.00;;;;;;;;4842661;29;45497;-67
2022/09/17 01:51:07;;;;;;;;;3.50;1.50;;;;;;;;4842379;29;45505;-67
2022/09/17 01:53:50;;;;;;;;;0.50;0.00;;;;;;;;4834989;29;45827;-67
2022/09/17 01:56:18;;;;;;;;;1.00;1.00;;;;;;;;4842258;29;45582;-67
2022/09/17 01:58:47;;;;;;;;;3.00;0.00;;;;;;;;4853620;29;45391;-67
2022/09/17 02:01:15;;;;;;;;;0.75;0.75;;;;;;;;4900456;28;45329;-68
2022/09/17 02:03:42;;;;;;;;;0.75;0.75;;;;;;;;4900391;28;45534;-67
2022/09/17 02:06:14;;;;;;;;;3.25;0.50;;;;;;;;4900976;29;45268;-68
2022/09/17 02:08:46;;;;;;;;;2.75;1.50;;;;;;;;4900961;28;45605;-68
2022/09/17 02:11:14;;;;;;;;;5.25;1.00;;;;;;;;4900598;29;46792;-67
2022/09/17 02:13:48;;;;;;;;;3.00;1.00;;;;;;;;4900587;28;45322;-68
2022/09/17 02:16:25;;;;;;;;;0.25;0.25;;;;;;;;4899737;28;45290;-68
2022/09/17 02:19:03;;;;;;;;;3.25;1.00;;;;;;;;4900598;28;45512;-68
2022/09/17 02:21:55;;;;;;;;;3.00;1.00;;;;;;;;4900036;28;46746;-68
2022/09/17 02:24:23;;;;;;;;;7.25;1.00;;;;;;;;4878082;28;45317;-68
2022/09/17 02:27:10;;;;;;;;;3.00;0.00;;;;;;;;4900486;29;45428;-67
2022/09/17 02:29:37;;;;;;;;;1.25;0.00;;;;;;;;4900794;29;45344;-67
2022/09/17 02:32:03;;;;;;;;;3.75;0.00;;;;;;;;4900299;28;46600;-68
2022/09/17 02:34:28;;;;;;;;;2.00;0.00;;;;;;;;4899593;29;45456;-68
2022/09/17 02:36:54;;;;;;;;;1.00;0.00;;;;;;;;4900675;28;45219;-67
2022/09/17 02:39:20;;;;;;;;;2.00;1.00;;;;;;;;4900556;28;45385;-67
2022/09/17 02:42:08;;;;;;;;;4.25;1.00;;;;;;;;4900389;28;46477;-68
2022/09/17 02:44:40;;;;;;;;;4.00;1.00;;;;;;;;4892514;29;45383;-67
2022/09/17 02:47:08;;;;;;;;;1.75;1.00;;;;;;;;4901452;28;45238;-67
2022/09/17 02:49:33;;;;;;;;;0.25;0.00;;;;;;;;4902422;29;45328;-67
2022/09/17 02:52:30;;;;;;;;;1.75;1.50;;;;;;;;4903353;29;47264;-68
2022/09/17 02:55:01;;;;;;;;;5.00;1.00;;;;;;;;4903524;28;45461;-67
2022/09/17 02:57:32;;;;;;;;;2.25;1.00;;;;;;;;4903477;29;45382;-68
2022/09/17 03:00:06;;;;;;;;;4.50;1.00;;;;;;;;4903711;28;45366;-68
2022/09/17 03:02:42;;;;;;;;;5.75;0.00;;;;;;;;4903169;29;46183;-68
2022/09/17 03:05:08;;;;;;;;;1.00;1.00;;;;;;;;4902953;28;45401;-67
2022/09/17 03:07:33;;;;;;;;;1.00;1.00;;;;;;;;4902290;28;45476;-67
2022/09/17 03:09:59;;;;;;;;;1.00;1.00;;;;;;;;4903372;28;45569;-67
2022/09/17 03:12:26;;;;;;;;;2.00;0.25;;;;;;;;4902968;28;46428;-68
2022/09/17 03:14:51;;;;;;;;;1.00;1.00;;;;;;;;4902925;28;45334;-68
2022/09/17 03:17:16;;;;;;;;;3.00;0.75;;;;;;;;4903273;29;45341;-68
2022/09/17 03:19:41;;;;;;;;;0.50;0.25;;;;;;;;4903120;29;45579;-67
2022/09/17 03:22:07;;;;;;;;;1.25;0.00;;;;;;;;4912847;28;46614;-68
2022/09/17 03:24:32;;;;;;;;;1.00;0.00;;;;;;;;4920933;28;45815;-68
2022/09/17 03:26:57;;;;;;;;;5.25;0.75;;;;;;;;4922041;28;45443;-68
2022/09/17 03:29:22;;;;;;;;;2.75;1.00;;;;;;;;4922478;28;45353;-68
2022/09/17 03:31:47;;;;;;;;;3.00;1.00;;;;;;;;4921777;28;46696;-68
2022/09/17 03:34:13;;;;;;;;;0.75;0.75;;;;;;;;4922136;28;45416;-68
2022/09/17 03:36:38;;;;;;;;;3.25;0.50;;;;;;;;4921804;28;45456;-68
2022/09/17 03:39:03;;;;;;;;;3.00;0.75;;;;;;;;4921863;28;45452;-68
2022/09/17 03:41:29;;;;;;;;;0.25;0.25;;;;;;;;4920968;28;45522;-68
2022/09/17 03:43:54;;;;;;;;;1.50;0.25;;;;;;;;4921687;28;45330;-67
2022/09/17 03:46:20;;;;;;;;;1.50;1.00;;;;;;;;4922038;28;45392;-67
2022/09/17 03:48:45;;;;;;;;;6.00;1.50;;;;;;;;4922002;28;45373;-67
2022/09/17 03:51:11;;;;;;;;;5.50;1.25;;;;;;;;4921278;28;46090;-67
2022/09/17 03:53:36;;;;;;;;;3.00;2.00;;;;;;;;4921831;28;45317;-67
2022/09/17 03:56:03;;;;;;;;;3.00;2.00;;;;;;;;4921653;28;45720;-67
2022/09/17 03:58:29;;;;;;;;;4.00;1.00;;;;;;;;4919782;28;45210;-66
2022/09/17 04:00:56;;;;;;;;;3.50;1.75;;;;;;;;4921398;28;45694;-68
2022/09/17 04:03:22;;;;;;;;;4.00;1.00;;;;;;;;4921357;28;45362;-68
2022/09/17 04:05:47;;;;;;;;;1.50;1.00;;;;;;;;4921576;28;45392;-68
2022/09/17 04:08:12;;;;;;;;;1.00;1.00;;;;;;;;4921708;28;45450;-67
2022/09/17 04:10:38;;;;;;;;;1.00;1.00;;;;;;;;4921400;28;46252;-69
2022/09/17 04:13:03;;;;;;;;;2.00;2.00;;;;;;;;4921428;28;45483;-68
2022/09/17 04:15:28;;;;;;;;;2.00;0.00;;;;;;;;4920343;28;45402;-67
2022/09/17 04:17:57;;;;;;;;;2.00;1.00;;;;;;;;4921608;28;45540;-68
2022/09/17 04:20:23;;;;;;;;;2.75;1.00;;;;;;;;4920909;28;46348;-69
2022/09/17 04:22:48;;;;;;;;;3.00;1.75;;;;;;;;4920955;28;45255;-69
2022/09/17 04:25:13;;;;;;;;;4.75;0.75;;;;;;;;4921299;28;45238;-67
2022/09/17 04:27:38;;;;;;;;;4.75;1.00;;;;;;;;4921250;28;45445;-67
2022/09/17 04:30:04;;;;;;;;;2.00;1.00;;;;;;;;4921011;28;46389;-68
2022/09/17 04:32:29;;;;;;;;;1.00;0.00;;;;;;;;4919944;28;45307;-68
2022/09/17 04:34:55;;;;;;;;;10.33;5.33;;;;;;;;4921253;28;45364;-67
2022/09/17 04:37:20;;;;;;;;;3.00;1.00;;;;;;;;4921066;28;45426;-68
2022/09/17 04:39:45;;;;;;;;;3.25;2.00;;;;;;;;4920676;28;46225;-68
2022/09/17 04:42:11;;;;;;;;;4.50;0.75;;;;;;;;4921014;28;45337;-68
2022/09/17 04:44:36;;;;;;;;;2.00;1.00;;;;;;;;4920939;28;45467;-68
2022/09/17 04:47:01;;;;;;;;;1.25;0.75;;;;;;;;4921176;28;45362;-67
2022/09/17 04:49:28;;;;;;;;;1.50;1.00;;;;;;;;4919895;28;46689;-67
2022/09/17 04:51:54;;;;;;;;;1.00;1.00;;;;;;;;4920383;28;45472;-68
2022/09/17 04:54:19;;;;;;;;;0.25;0.25;;;;;;;;4920856;28;45439;-67
2022/09/17 04:56:44;;;;;;;;;2.75;1.00;;;;;;;;4920804;28;45250;-67
2022/09/17 04:59:09;;;;;;;;;2.00;0.75;;;;;;;;4920725;28;46010;-68
2022/09/17 05:01:34;;;;;;;;;10.33;8.67;;;;;;;;4920384;28;45352;-67
2022/09/17 05:04:00;;;;;;;;;2.00;0.00;;;;;;;;4920637;28;45454;-67
2022/09/17 05:06:25;;;;;;;;;1.00;1.00;;;;;;;;4919691;28;45300;-67
2022/09/17 05:08:50;;;;;;;;;2.00;1.00;;;;;;;;4920367;28;46165;-67
2022/09/17 05:11:15;;;;;;;;;2.25;1.00;;;;;;;;4920226;28;45391;-67
2022/09/17 05:13:41;;;;;;;;;5.00;1.00;;;;;;;;4920481;28;45449;-67
2022/09/17 05:16:06;;;;;;;;;0.75;0.75;;;;;;;;4920887;28;45361;-68
2022/09/17 05:18:31;;;;;;;;;2.00;0.00;;;;;;;;4920339;28;45469;-67
2022/09/17 05:20:56;;;;;;;;;4.75;1.00;;;;;;;;4919444;28;45628;-67
2022/09/17 05:23:21;;;;;;;;;5.67;3.00;;;;;;;;4900483;29;45449;-67
2022/09/17 05:25:47;;;;;;;;;3.00;1.00;;;;;;;;4901443;29;45436;-67
2022/09/17 05:28:12;;;;;;;;;2.75;0.25;;;;;;;;4900942;29;46086;-67
2022/09/17 05:30:37;;;;;;;;;2.00;1.75;;;;;;;;4901381;29;45234;-68
2022/09/17 05:33:04;;;;;;;;;3.00;1.25;;;;;;;;4901305;29;45311;-67
2022/09/17 05:35:30;;;;;;;;;3.75;1.00;;;;;;;;4901402;28;45235;-67
2022/09/17 05:37:56;;;;;;;;;2.50;1.00;;;;;;;;4900536;29;46548;-67
2022/09/17 05:40:21;;;;;;;;;4.00;1.00;;;;;;;;4899999;28;45242;-66
2022/09/17 05:42:46;;;;;;;;;2.00;2.00;;;;;;;;4899740;29;45555;-67
2022/09/17 05:45:12;;;;;;;;;4.00;2.00;;;;;;;;4901112;29;45310;-67
2022/09/17 05:47:37;;;;;;;;;2.25;1.00;;;;;;;;4900869;29;46628;-68
2022/09/17 05:50:02;;;;;;;;;3.00;0.50;;;;;;;;4900788;28;45406;-68
2022/09/17 05:52:28;;;;;;;;;0.00;0.00;;;;;;;;4899370;29;45795;-68
2022/09/17 05:54:53;;;;;;;;;2.25;2.00;;;;;;;;4900108;29;45252;-68
2022/09/17 05:57:19;;;;;;;;;2.00;0.50;;;;;;;;4900272;28;46410;-68
2022/09/17 05:59:44;;;;;;;;;4.25;1.00;;;;;;;;4900910;28;45325;-68
2022/09/17 06:02:12;;;;;;;;;1.00;1.00;;;;;;;;4899227;29;45298;-67
2022/09/17 06:04:37;;;;;;;;;1.00;1.00;;;;;;;;4900638;28;45368;-67
2022/09/17 06:07:04;;;;;;;;;1.00;1.00;;;;;;;;4900366;29;46375;-68
2022/09/17 06:09:30;;;;;;;;;2.50;1.00;;;;;;;;4900475;28;45423;-68
2022/09/17 06:11:55;;;;;;;;;2.50;0.00;;;;;;;;4899674;29;45339;-68
2022/09/17 06:14:20;;;;;;;;;2.50;1.00;;;;;;;;4900714;29;45440;-68
2022/09/17 06:16:45;;;;;;;;;1.00;1.00;;;;;;;;4900134;29;46268;-67
2022/09/17 06:19:10;;;;;;;;;1.00;1.00;;;;;;;;4900445;29;45419;-69
2022/09/17 06:21:36;;;;;;;;;0.50;0.50;;;;;;;;4906122;28;45177;-68
2022/09/17 06:24:01;;;;;;;;;2.00;0.50;;;;;;;;4922235;28;45438;-68
2022/09/17 06:26:26;;;;;;;;;1.25;1.25;;;;;;;;4921982;28;45365;-68
2022/09/17 06:28:51;;;;;;;;;3.00;1.50;;;;;;;;4921148;28;45229;-68
2022/09/17 06:31:17;;;;;;;;;1.00;0.00;;;;;;;;4922074;28;45514;-67
2022/09/17 06:33:42;;;;;;;;;2.00;1.00;;;;;;;;4921972;28;45588;-68
2022/09/17 06:36:09;;;;;;;;;2.75;1.50;;;;;;;;4921712;28;46239;-68
2022/09/17 06:38:35;;;;;;;;;2.33;2.00;;;;;;;;4921544;28;45322;-68
2022/09/17 06:41:01;;;;;;;;;0.75;0.75;;;;;;;;4904760;28;45337;-68
2022/09/17 06:43:26;;;;;;;;;3.00;1.00;;;;;;;;4922078;28;45375;-68
2022/09/17 06:45:55;;;;;;;;;4.00;1.00;;;;;;;;4920438;28;45608;-68
2022/09/17 06:48:21;;;;;;;;;1.50;1.50;;;;;;;;4921776;28;45393;-68
2022/09/17 06:50:47;;;;;;;;;4.00;1.00;;;;;;;;4921848;28;45393;-67
2022/09/17 06:53:12;;;;;;;;;3.00;1.50;;;;;;;;4921555;28;45409;-68
2022/09/17 06:55:38;;;;;;;;;3.00;0.50;;;;;;;;4921537;28;45628;-67
2022/09/17 06:58:03;;;;;;;;;3.25;1.00;;;;;;;;4921424;28;45571;-69
2022/09/17 07:00:29;;;;;;;;;0.25;0.25;;;;;;;;4920680;28;45388;-69
2022/09/17 07:02:56;;;;;;;;;1.25;1.25;;;;;;;;4921738;28;45319;-69
2022/09/17 07:05:22;;;;;;;;;1.00;1.00;;;;;;;;4921376;28;46268;-69
2022/09/17 07:07:47;;;;;;;;;1.00;0.75;;;;;;;;4920928;28;45262;-69
2022/09/17 07:10:13;;;;;;;;;3.00;0.25;;;;;;;;4921399;28;45574;-70
2022/09/17 07:12:41;;;;;;;;;1.75;1.25;;;;;;;;4921672;28;45254;-70
2022/09/17 07:15:07;;;;;;;;;6.00;2.00;;;;;;;;4921072;28;46401;-70
2022/09/17 07:17:32;;;;;;;;;4.00;2.00;;;;;;;;4920043;28;45361;-70
2022/09/17 07:19:57;;;;;;;;;0.50;0.50;;;;;;;;4921498;28;45606;-71
2022/09/17 07:22:23;;;;;;;;;2.00;1.00;;;;;;;;4868073;28;1220578;-71
2022/09/17 07:24:48;;;;;;;;;2.00;1.00;;;;;;;;4903110;29;46275;-71
2022/09/17 07:27:14;;;;;;;;;1.00;1.00;;;;;;;;4902782;28;45326;-71
2022/09/17 07:29:40;;;;;;;;;2.00;1.00;;;;;;;;4902999;29;45376;-71
2022/09/17 07:32:06;;;;;;;;;3.00;2.00;;;;;;;;4902904;29;45521;-71
2022/09/17 07:34:31;;;;;;;;;2.75;1.00;;;;;;;;4900059;29;46255;-72
2022/09/17 07:36:56;;;;;;;;;1.25;0.50;;;;;;;;4892936;29;45715;-76
2022/09/17 07:39:21;;;;;;;;;6.00;6.00;;;;;;;;4883719;29;45391;-71
2022/09/17 07:41:47;;;;;;;;;1.50;1.50;;;;;;;;4884068;29;45429;-71
2022/09/17 07:44:12;;;;;;;;;2.25;1.25;;;;;;;;4883707;29;46441;-69
2022/09/17 07:46:37;;;;;;;;;1.25;1.00;;;;;;;;4884878;29;45476;-69
2022/09/17 07:49:02;;;;;;;;;1.75;1.00;;;;;;;;4901019;29;45318;-74
2022/09/17 07:51:27;;;;;;;;;1.75;1.00;;;;;;;;4901598;29;45418;-69
2022/09/17 07:53:53;;;;;;;;;1.00;1.00;;;;;;;;4899792;29;46292;-65
2022/09/17 07:56:19;;;;;;;;;2.00;1.00;;;;;;;;4902174;28;45448;-67
2022/09/17 07:58:44;;;;;;;;;1.50;1.00;;;;;;;;4902428;29;45357;-69
2022/09/17 08:01:10;;;;;;;;;1.00;1.00;;;;;;;;4902928;29;45211;-68
2022/09/17 08:03:36;;;;;;;;;4.25;1.00;;;;;;;;4902143;28;45313;-68
2022/09/17 08:06:02;;;;;;;;;4.50;1.00;;;;;;;;4902299;28;45295;-68
2022/09/17 08:08:28;;;;;;;;;3.75;1.50;;;;;;;;4901281;29;45674;-70
2022/09/17 08:10:54;;;;;;;;;5.50;1.00;;;;;;;;4902545;28;45364;-72
2022/09/17 08:13:19;;;;;;;;;4.00;1.25;;;;;;;;4902246;28;45352;-70
2022/09/17 08:15:44;;;;;;;;;1.50;1.50;;;;;;;;4902207;29;45302;-69
2022/09/17 08:18:10;;;;;;;;;1.50;0.50;;;;;;;;4902067;28;45465;-69
2022/09/17 08:20:35;;;;;;;;;2.00;0.25;;;;;;;;4901572;28;45310;-68
2022/09/17 08:23:00;;;;;;;;;2.00;0.00;;;;;;;;4915333;28;46442;-70
2022/09/17 08:25:25;;;;;;;;;0.50;0.50;;;;;;;;4918507;28;45483;-69
2022/09/17 08:27:57;;;;;;;;;1.75;0.00;;;;;;;;4919176;28;45488;-69
2022/09/17 08:30:22;;;;;;;;;1.75;0.50;;;;;;;;4917133;28;45543;-68
2022/09/17 08:32:47;;;;;;;;;2.00;1.00;;;;;;;;4919431;28;46227;-68
2022/09/17 08:35:14;;;;;;;;;0.50;0.25;;;;;;;;4919237;28;45724;-67
2022/09/17 08:37:39;;;;;;;;;0.50;0.00;;;;;;;;4919361;28;45506;-67
2022/09/17 08:40:04;;;;;;;;;1.00;0.75;;;;;;;;4918523;28;45440;-69
2022/09/17 08:42:36;;;;;;;;;1.50;0.75;;;;;;;;4901035;28;46260;-69
2022/09/17 08:45:03;;;;;;;;;0.50;0.50;;;;;;;;4918629;28;45770;-72
2022/09/17 08:47:36;;;;;;;;;5.50;1.00;;;;;;;;4919280;28;45393;-69
2022/09/17 08:50:04;;;;;;;;;2.50;1.25;;;;;;;;4919443;28;45383;-69
2022/09/17 08:52:44;;;;;;;;;0.75;0.75;;;;;;;;4918313;28;46128;-78
2022/09/17 08:55:33;;;;;;;;;2.00;0.75;;;;;;;;4915905;28;45548;-72
2022/09/17 08:58:17;;;;;;;;;0.50;0.50;;;;;;;;4907084;28;45485;-68
2022/09/17 09:00:54;;;;;;;;;2.00;1.75;;;;;;;;4917391;28;45602;-69
2022/09/17 09:03:29;;;;;;;;;0.75;0.75;;;;;;;;4916292;28;45456;-69
2022/09/17 09:05:57;;;;;;;;;2.50;0.00;;;;;;;;4915105;28;46220;-66
2022/09/17 09:08:50;;;;;;;;;3.50;0.50;;;;;;;;4917263;28;45527;-66
2022/09/17 09:11:18;;;;;;;;;1.75;0.00;;;;;;;;4913710;28;45504;-69
2022/09/17 09:13:46;;;;;;;;;1.25;0.00;;;;;;;;4915724;28;45638;-69
2022/09/17 09:16:17;;;;;;;;;4.00;0.75;;;;;;;;4915782;28;45437;-70
2022/09/17 09:18:43;;;;;;;;;2.00;0.75;;;;;;;;4916179;28;45528;-70
2022/09/17 09:21:08;;;;;;;;;1.25;1.25;;;;;;;;4917238;28;45452;-68
2022/09/17 09:23:39;;;;;;;;;1.75;0.75;;;;;;;;4915689;28;46526;-70
2022/09/17 09:26:13;;;;;;;;;0.00;0.00;;;;;;;;4916841;28;45945;-70
2022/09/17 09:28:38;;;;;;;;;0.00;0.00;;;;;;;;4915010;28;45507;-72
2022/09/17 09:31:24;;;;;;;;;1.25;0.00;;;;;;;;4917398;28;45472;-68
2022/09/17 09:33:49;;;;;;;;;2.00;0.00;;;;;;;;4857799;29;46666;-66
2022/09/17 09:36:20;;;;;;;;;0.75;0.75;;;;;;;;4860092;29;45377;-68
2022/09/17 09:38:50;;;;;;;;;1.25;0.00;;;;;;;;4854889;29;45581;-68
2022/09/17 09:41:18;;;;;;;;;0.00;0.00;;;;;;;;4855025;29;45578;-68
2022/09/17 09:43:45;;;;;;;;;0.00;0.00;;;;;;;;4853996;29;45799;-70
2022/09/17 09:46:28;;;;;;;;;1.25;0.75;;;;;;;;4855512;29;45917;-67
2022/09/17 09:48:54;;;;;;;;;0.00;0.00;;;;;;;;4856234;29;46386;-67
2022/09/17 09:51:19;;;;;;;;;7.67;7.67;;;;;;;;4858021;29;45450;-69
2022/09/17 09:54:10;;;;;;;;;0.50;0.50;;;;;;;;4857410;29;45485;-64
2022/09/17 09:56:47;;;;;;;;;2.00;0.00;;;;;;;;4855344;29;45380;-65
2022/09/17 09:59:12;;;;;;;;;0.00;0.00;;;;;;;;4856678;29;45412;-66
2022/09/17 10:01:39;;;;;;;;;0.00;0.00;;;;;;;;4858093;29;45554;-64
2022/09/17 10:04:14;;;;;;;;;1.00;0.00;;;;;;;;4857564;29;45673;-66
2022/09/17 10:06:39;;;;;;;;;1.00;0.00;;;;;;;;4857277;29;45384;-67
2022/09/17 10:09:04;;;;;;;;;6.67;5.00;;;;;;;;4857597;29;45511;-68
2022/09/17 10:11:33;;;;;;;;;1.00;0.00;;;;;;;;4900014;28;45553;-65
2022/09/17 10:14:14;;;;;;;;;2.00;1.00;;;;;;;;4915433;28;46632;-70
2022/09/17 10:16:39;;;;;;;;;0.25;0.25;;;;;;;;4913510;28;45769;-67
2022/09/17 10:19:04;;;;;;;;;0.00;0.00;;;;;;;;4916251;28;45425;-65
2022/09/17 10:21:40;;;;;;;;;4.00;3.00;;;;;;;;4916158;28;45464;-64
2022/09/17 10:24:20;;;;;;;;;1.00;1.00;;;;;;;;4912702;28;46333;-67
2022/09/17 10:26:46;;;;;;;;;0.00;0.00;;;;;;;;4914600;28;45472;-65
2022/09/17 10:29:13;;;;;;;;;0.50;0.25;;;;;;;;4915290;28;46093;-64
2022/09/17 10:32:05;;;;;;;;;1.00;1.00;;;;;;;;4916252;28;45555;-65
2022/09/17 10:34:31;;;;;;;;;38.67;33.00;;;;;;;;4912419;28;46648;-65
2022/09/17 10:36:57;;;;;;;;;4.00;4.00;;;;;;;;4914646;28;45529;-65
2022/09/17 10:39:25;;;;;;;;;1.00;1.00;;;;;;;;4912730;28;45559;-66
2022/09/17 10:41:53;;;;;;;;;6.00;4.67;;;;;;;;4913524;28;45873;-65
2022/09/17 10:44:20;;;;;;;;;4.00;3.00;;;;;;;;4911765;28;45857;-65
2022/09/17 10:46:45;;;;;;;;;5.00;5.00;;;;;;;;4912935;28;45599;-66
2022/09/17 10:49:17;;;;;;;;;0.67;0.00;;;;;;;;4915312;28;46342;-63
2022/09/17 10:51:43;;;;;;;;;13.00;10.33;;;;;;;;4914262;28;45470;-64
2022/09/17 10:54:08;;;;;;;;;10.00;7.33;;;;;;;;4914981;28;45412;-65
2022/09/17 10:56:37;;;;;;;;;1.00;1.00;;;;;;;;4914500;28;45546;-64
2022/09/17 10:59:02;;;;;;;;;4.67;3.00;;;;;;;;4914346;28;45499;-67
2022/09/17 11:01:47;;;;;;;;;1.33;0.00;;;;;;;;4915726;28;45547;-69
2022/09/17 11:04:13;;;;;;;;;12.33;11.00;;;;;;;;4903430;28;48107;-71
2022/09/17 11:07:14;;;;;;;;;2.33;2.00;;;;;;;;4913844;28;46306;-71
2022/09/17 11:09:54;;;;;;;;;0.00;0.00;;;;;;;;4857877;29;45466;-71
2022/09/17 11:12:29;;;;;;;;;0.00;0.00;;;;;;;;4859494;29;45737;-76
2022/09/17 11:14:54;;;;;;;;;1.25;0.25;;;;;;;;4859320;29;45545;-76
2022/09/17 11:17:20;;;;;;;;;0.50;0.00;;;;;;;;4859471;29;45422;-67
2022/09/17 11:20:00;;;;;;;;;0.00;0.00;;;;;;;;4858897;29;45484;-69
2022/09/17 11:22:43;;;;;;;;;1.00;0.00;;;;;;;;4846469;29;45542;-68
2022/09/17 11:25:18;;;;;;;;;2.00;0.00;;;;;;;;4839915;29;45601;-67
2022/09/17 11:28:01;;;;;;;;;0.00;0.00;;;;;;;;4840517;29;45532;-71
2022/09/17 11:30:31;;;;;;;;;0.00;0.00;;;;;;;;4840203;29;45636;-72
2022/09/17 11:33:06;;;;;;;;;1.50;0.00;;;;;;;;4840742;29;45646;-73
2022/09/17 11:35:34;;;;;;;;;16.33;10.00;;;;;;;;4840302;29;46364;-72
2022/09/17 11:38:14;;;;;;;;;0.00;0.00;;;;;;;;4838393;29;45629;-72
2022/09/17 11:40:51;;;;;;;;;2.25;0.00;;;;;;;;4835957;29;45480;-71
2022/09/17 11:43:16;;;;;;;;;0.00;0.00;;;;;;;;4853730;28;45493;-72
2022/09/17 11:46:04;;;;;;;;;1.00;1.00;;;;;;;;4897137;29;45593;-72
2022/09/17 11:48:53;;;;;;;;;0.00;0.00;;;;;;;;4890601;29;45476;-70
2022/09/17 11:51:40;;;;;;;;;0.00;0.00;;;;;;;;4895459;29;45544;-71
2022/09/17 11:54:13;;;;;;;;;0.00;0.00;;;;;;;;4894496;28;45525;-71
2022/09/17 11:56:41;;;;;;;;;0.00;0.00;;;;;;;;4899327;28;46807;-70
2022/09/17 11:59:06;;;;;;;;;0.50;0.00;;;;;;;;4899345;28;45549;-70
2022/09/17 12:01:39;;;;;;;;;2.00;0.50;;;;;;;;4899353;29;45436;-71
2022/09/17 12:04:15;;;;;;;;;1.00;1.00;;;;;;;;4901043;29;45481;-71
2022/09/17 12:06:48;;;;;;;;;1.00;1.00;;;;;;;;4901382;28;46603;-70
2022/09/17 12:09:16;;;;;;;;;1.75;1.00;;;;;;;;4901259;28;45400;-71
2022/09/17 12:11:50;;;;;;;;;0.50;0.00;;;;;;;;4900805;28;45471;-70
2022/09/17 12:14:15;;;;;;;;;0.75;0.00;;;;;;;;4900340;28;45703;-70
2022/09/17 12:16:42;;;;;;;;;0.25;0.00;;;;;;;;4901009;29;45467;-71
2022/09/17 12:19:37;;;;;;;;;0.00;0.00;;;;;;;;4900076;28;45324;-71
2022/09/17 12:22:08;;;;;;;;;2.50;0.00;;;;;;;;4842158;29;45479;-70
2022/09/17 12:24:34;;;;;;;;;6.67;3.67;;;;;;;;4857524;29;46214;-71
2022/09/17 12:27:19;;;;;;;;;6.00;6.00;;;;;;;;4860877;29;46350;-68
2022/09/17 12:30:03;;;;;;;;;0.00;0.00;;;;;;;;4787409;29;45454;-68
2022/09/17 12:32:47;;;;;;;;;0.00;0.00;;;;;;;;4785438;29;45583;-68
2022/09/17 12:35:22;;;;;;;;;0.25;0.00;;;;;;;;4787637;29;45412;-68
2022/09/17 12:38:25;;;;;;;;;0.00;0.00;;;;;;;;4787291;29;46561;-68
2022/09/17 12:40:53;;;;;;;;;2.75;0.00;;;;;;;;4751261;29;45545;-68
2022/09/17 12:43:37;;;;;;;;;0.00;0.00;;;;;;;;4751223;29;45440;-68
2022/09/17 12:46:02;;;;;;;;;0.00;0.00;;;;;;;;4751612;29;45473;-67
2022/09/17 12:48:30;;;;;;;;;0.00;0.00;;;;;;;;4749646;29;46413;-68
2022/09/17 12:50:58;;;;;;;;;2.25;2.25;;;;;;;;4751221;29;45458;-68
2022/09/17 12:53:34;;;;;;;;;0.00;0.00;;;;;;;;4751092;29;45472;-68
2022/09/17 12:56:10;;;;;;;;;0.50;0.00;;;;;;;;4751321;29;45464;-68
2022/09/17 12:58:35;;;;;;;;;1.00;0.00;;;;;;;;4740871;29;46468;-68
2022/09/17 13:01:13;;;;;;;;;1.00;0.00;;;;;;;;4733595;30;45543;-68
2022/09/17 13:03:38;;;;;;;;;1.00;0.00;;;;;;;;4733128;30;45789;-68
2022/09/17 13:06:29;;;;;;;;;0.00;0.00;;;;;;;;4744765;29;45390;-68
2022/09/17 13:09:13;;;;;;;;;0.00;0.00;;;;;;;;4805135;29;46210;-68
2022/09/17 13:11:41;;;;;;;;;0.75;0.00;;;;;;;;4843994;29;45284;-68
2022/09/17 13:14:13;;;;;;;;;0.00;0.00;;;;;;;;4881374;29;45407;-68
2022/09/17 13:17:04;;;;;;;;;0.00;0.00;;;;;;;;4881708;29;45482;-68
2022/09/17 13:19:34;;;;;;;;;0.00;0.00;;;;;;;;4852026;29;46367;-68
2022/09/17 13:22:05;;;;;;;;;0.50;0.00;;;;;;;;4888842;29;45620;-68
2022/09/17 13:24:32;;;;;;;;;1.00;0.00;;;;;;;;4898929;28;45475;-68
2022/09/17 13:26:58;;;;;;;;;0.50;0.00;;;;;;;;4900323;29;45671;-68
2022/09/17 13:29:42;;;;;;;;;0.00;0.00;;;;;;;;4899972;29;46505;-68
2022/09/17 13:32:07;;;;;;;;;0.75;0.00;;;;;;;;4899811;29;45776;-68
2022/09/17 13:34:34;;;;;;;;;1.50;1.50;;;;;;;;4899793;29;45399;-68
2022/09/17 13:37:01;;;;;;;;;1.00;0.00;;;;;;;;4900427;29;45401;-68
2022/09/17 13:39:35;;;;;;;;;0.00;0.00;;;;;;;;4898680;29;46697;-68
2022/09/17 13:42:06;;;;;;;;;1.00;0.00;;;;;;;;4899802;29;45508;-68
2022/09/17 13:44:33;;;;;;;;;0.00;0.00;;;;;;;;4899838;29;45473;-68
2022/09/17 13:47:10;;;;;;;;;4.50;0.50;;;;;;;;4899666;29;45679;-69
2022/09/17 13:49:42;;;;;;;;;1.50;0.00;;;;;;;;4899897;29;45408;-68
2022/09/17 13:52:08;;;;;;;;;0.75;0.00;;;;;;;;4899824;29;45457;-68
2022/09/17 13:54:35;;;;;;;;;2.00;0.00;;;;;;;;4898556;29;45530;-68
2022/09/17 13:57:12;;;;;;;;;0.75;0.25;;;;;;;;4899699;29;45350;-68
2022/09/17 13:59:39;;;;;;;;;0.00;0.00;;;;;;;;4899405;29;46303;-68
2022/09/17 14:02:17;;;;;;;;;1.67;1.67;;;;;;;;4898927;29;45480;-69
2022/09/17 14:04:42;;;;;;;;;0.00;0.00;;;;;;;;4899504;29;45419;-68
2022/09/17 14:07:20;;;;;;;;;0.00;0.00;;;;;;;;4899563;29;45359;-68
2022/09/17 14:09:49;;;;;;;;;0.00;0.00;;;;;;;;4898314;29;45444;-68
2022/09/17 14:12:41;;;;;;;;;0.75;0.00;;;;;;;;4899157;29;45528;-69
2022/09/17 14:15:25;;;;;;;;;0.00;0.00;;;;;;;;4870717;29;45336;-68
2022/09/17 14:17:51;;;;;;;;;0.00;0.00;;;;;;;;4899098;29;45469;-68
2022/09/17 14:20:21;;;;;;;;;0.75;0.50;;;;;;;;4899189;29;47466;-68
2022/09/17 14:23:16;;;;;;;;;2.25;0.75;;;;;;;;4914075;28;45530;-68
2022/09/17 14:25:44;;;;;;;;;0.00;0.00;;;;;;;;4822454;29;45573;-68
2022/09/17 14:28:17;;;;;;;;;0.25;0.00;;;;;;;;4821426;29;45747;-68
2022/09/17 14:30:45;;;;;;;;;0.00;0.00;;;;;;;;4822315;29;46272;-68
2022/09/17 14:33:10;;;;;;;;;0.00;0.00;;;;;;;;4822499;29;45404;-69
2022/09/17 14:35:47;;;;;;;;;5.00;3.00;;;;;;;;4822345;29;45427;-68
2022/09/17 14:38:18;;;;;;;;;0.00;0.00;;;;;;;;4822152;29;45494;-69
2022/09/17 14:40:45;;;;;;;;;0.00;0.00;;;;;;;;4822444;29;45439;-68
2022/09/17 14:43:17;;;;;;;;;2.75;0.00;;;;;;;;4823340;29;45489;-68
2022/09/17 14:45:42;;;;;;;;;0.00;0.00;;;;;;;;4824586;29;45330;-68
2022/09/17 14:48:22;;;;;;;;;0.00;0.00;;;;;;;;4825419;29;45377;-68
2022/09/17 14:50:48;;;;;;;;;0.25;0.00;;;;;;;;4825498;29;46596;-67
2022/09/17 14:53:15;;;;;;;;;1.00;0.50;;;;;;;;4825276;29;45489;-67
2022/09/17 14:55:41;;;;;;;;;0.00;0.00;;;;;;;;4825580;29;45589;-67
2022/09/17 14:58:23;;;;;;;;;0.00;0.00;;;;;;;;4825168;29;46057;-68